Meherrin, VA

8:32 PM EDT on September 18, 2014 (GMT -0400)
Lunenberg | Change Station
CLOSE
Current Station
Personal Weather Station
Location: Victoria, VA
Elevation: 474 ft
Nearby Weather Stations

Elev 474 ft 36.98 °N, 78.29 °W | Updated 41 seconds ago

Overcast
Overcast
66.7 °F
Feels Like 66.7 °F
N
0.0
Wind Variable Wind from East
Gusts 0.0 mph

Today
High -- | Low -- °F
--% Chance of Precip.
Yesterday
High -- | Low -- °F
Precip. -- in
6:58 AM 7:16 PM
Waning Crescent, 23% visible
Pressure 30.02 in
Visibility 7.0 miles
Clouds Overcast 8500 ft
Dew Point 66 °F
Humidity 97%
Rainfall 0.00 in
Snow Depth Not available.
UV 0 out of 12
Pollen 6.10 out of 12
Air Quality Not available.
Flu Activity Not available.
METAR KFVX 190015Z AUTO 36004KT 7SM OVC085 19/18 A3002 RMK AO2

More Conditions Fewer Conditions

Pressure 30.02 in
Visibility 7.0 miles
Clouds Overcast 8500 ft
Dew Point 66 °F
Humidity 97%
Rainfall 0.00 in
Snow Depth Not available.
UV 0 out of 12
Pollen 6.10 out of 12
Air Quality Not available.
Flu Activity Not available.
METAR KFVX 190015Z AUTO 36004KT 7SM OVC085 19/18 A3002 RMK AO2

More Conditions Fewer Conditions

10-Day Weather Forecast

Almanac

Astronomy

Sep. 18, 2014 Rise Set
Actual Time 6:58 AM EDT 7:16 PM EDT
Civil Twilight 6:32 AM EDT 7:42 PM EDT
Nautical Twilight 6:01 AM EDT 8:12 PM EDT
Astronomical Twilight 5:30 AM EDT 8:43 PM EDT
Moon 1:53 AM EDT (9/18) 4:01 PM EDT (9/18)
Length of Visible Light 13h 10m
Length of Day
12h 18m
Tomorrow will be 2m 21s shorter.
Waning Crescent, 23% of the Moon is Illuminated
Today
Waning Crescent
Sep 24
New
Oct 1
First Quarter
Oct 8
Full
Oct 15
Last Quarter

Today's Extremes

State Highs State Lows

Community

WunderPhotos

Upload Photos

1,754,510 photos uploaded!

WunderBlogs® & News

Nearby

Snow Depth

Station Depth Elevation
No new snow has been reported.

Earthquake Activity

City Distance Mag. Time & Date
No recent earthquake activity has been reported nearby.
Minimum magnitude displayed is 2.5.

Coastal Water Temperatures

Place Temperature
No Stations Reporting

Nearby Weather Stations